• Join FlightAware (Why Join?)
  • Login
  • US Flag 
06:27PM EDT


 

Airport Tracker/Info


-or-


 

Live Flight TrackerFlight Track Log ✈ SWA868 ✈ 01-May-2014 ✈ KHOU - KBBG

Flight Track Log - Related Links

Times and Time Zones

All times are in EDT time to prevent confusion due to time zone crossing. See the SWA868 flight status page for this flight to view local times or setup timezone preferences in your user account.

Time Position Orientation Groundspeed Altitude Reporting Facility
EDT Latitude Longitude Course Direction KTS MPH feet Rate Location/Type
01:21PM 29.6544 -95.2917 North 269 310 1,300  Level Houston Center
01:22PM 29.6889 -95.2853 North 217 250 2,700 2,700 Climbing Houston Center
01:23PM 29.7542 -95.3006 349° North 241 277 6,200 3,540 Climbing Houston Center
01:24PM 29.8253 -95.3203 346° North 257 296 10,100 2,820 Climbing Houston Center
01:25PM 29.9150 -95.3019 10° North 343 395 12,100 2,820 Climbing Houston Center
01:26PM 30.0147 -95.2761 13° North 366 421 16,000 3,360 Climbing Houston Center
01:27PM 30.1392 -95.2433 13° North 380 437 19,100 2,640 Climbing Houston Center
01:28PM 30.2506 -95.2131 13° North 408 470 21,600 2,340 Climbing Houston Center
01:29PM 30.3683 -95.1822 13° North 432 497 24,000 2,280 Climbing Houston Center
01:30PM 30.5028 -95.1294 19° North 458 527 26,400 2,040 Climbing Houston Center
01:31PM 30.6203 -95.0539 29° Northeast 479 551 28,300 1,800 Climbing Houston Center
01:32PM 30.7425 -94.9803 27° Northeast 492 566 30,200 1,680 Climbing Houston Center
01:34PM 30.8650 -94.9025 29° Northeast 502 578 31,800 1,680 Climbing Houston Center
01:35PM 30.9894 -94.8253 28° Northeast 507 583 33,700 1,860 Climbing Houston Center
01:36PM 31.1364 -94.7336 28° Northeast 507 583 35,700 1,620 Climbing Houston Center
01:37PM 31.2497 -94.6931 17° North 494 568 37,100 1,320 Climbing Houston Center
01:38PM 31.3892 -94.6564 13° North 487 560 38,500 840 Climbing Houston Center
01:39PM 31.5172 -94.6142 16° North 481 554 38,900 240 Climbing Houston Center
01:40PM 31.6492 -94.5722 15° North 484 557 39,000  Climbing Fort Worth Center
01:41PM 31.7786 -94.5317 15° North 483 556 38,900  Descending Fort Worth Center
01:42PM 31.9086 -94.4897 15° North 482 555 39,000  Climbing Fort Worth Center
01:43PM 32.0392 -94.4472 15° North 483 556 38,900  Descending Fort Worth Center
01:44PM 32.1686 -94.4056 15° North 483 556 39,000  Climbing Fort Worth Center
01:45PM 32.3086 -94.3603 15° North 484 557 39,000  Level Fort Worth Center
01:46PM 32.4389 -94.3189 15° North 484 557 39,000  Level Fort Worth Center
01:47PM 32.5678 -94.2750 16° North 483 556 39,000  Level Fort Worth Center
01:48PM 32.7233 -94.2247 15° North 482 555 39,000  Level Fort Worth Center
01:49PM 32.8519 -94.1819 16° North 482 555 39,000  Level Fort Worth Center
01:50PM 32.9806 -94.1397 15° North 481 554 39,000  Level Fort Worth Center
01:51PM 33.1083 -94.0986 15° North 480 552 39,000  Level Fort Worth Center
01:52PM 33.2369 -94.0569 15° North 477 549 39,000  Level Fort Worth Center
01:53PM 33.3764 -94.0081 16° North 481 554 39,000  Level Fort Worth Center
01:54PM 33.5036 -93.9639 16° North 481 554 39,000  Level Fort Worth Center
01:55PM 33.6356 -93.9236 14° North 481 554 39,000  Level Fort Worth Center
01:56PM 33.7900 -93.8711 16° North 481 554 39,000  Level Fort Worth Center
01:57PM 33.9189 -93.8272 16° North 481 554 39,000  Level Fort Worth Center
01:58PM 34.0472 -93.7822 16° North 481 554 39,000  Level Fort Worth Center
01:59PM 34.1764 -93.7386 16° North 480 552 39,000  Level Fort Worth Center
02:00PM 34.2544 -93.7133 15° North 481 554 39,000  Level Memphis Center
02:01PM 34.3783 -93.6708 16° North 481 554 39,000 -1,080 Level Memphis Center
02:02PM 34.5381 -93.6178 15° North 492 566 36,800 -2,640 Descending Memphis Center
02:03PM 34.6733 -93.5706 16° North 501 577 33,600 -3,240 Descending Memphis Center
02:04PM 34.8122 -93.5214 16° North 513 590 30,200 -3,180 Descending Memphis Center
02:05PM 34.9522 -93.4750 15° North 512 589 27,100 -1,560 Descending Memphis Center
02:06PM 35.0722 -93.4336 16° North 469 540 27,000 -60 Descending Memphis Center
02:07PM 35.1833 -93.3972 15° North 421 484 27,000  Level Memphis Center
02:08PM 35.3111 -93.3511 16° North 399 459 27,000  Level Memphis Center
02:09PM 35.4144 -93.3158 16° North 392 451 27,000 -720 Level Memphis Center
02:10PM 35.5167 -93.2783 17° North 386 444 25,600 -1,440 Descending Memphis Center
02:11PM 35.6256 -93.2394 16° North 400 460 24,000 -2,460 Descending Memphis Center
02:12PM 35.7322 -93.2028 16° North 394 453 20,600 -3,540 Descending Memphis Center
02:13PM 35.8394 -93.1514 21° North 416 479 16,800 -3,360 Descending Memphis Center
02:14PM 35.9264 -93.0606 40° Northeast 409 471 13,700 -2,220 Descending Memphis Center
02:15PM 36.0189 -93.0414 10° North 357 411 12,300 -1,980 Descending Memphis Center
02:16PM 36.1181 -93.0272 North 316 364 9,700 -2,400 Descending Memphis Center
02:17PM 36.1953 -93.0158 North 296 341 7,400 -1,800 Descending Memphis Center
02:18PM 36.2692 -93.0042 North 281 323 6,000 -720 Descending Memphis Center
02:19PM 36.3269 -93.0231 345° North 247 284 6,000 -540 Level Memphis Center
02:21PM 36.3719 -93.0614 326° Northwest 217 250 5,000 -960 Descending Memphis Center
02:23PM 36.4767 -93.1628 322° Northwest 156 180 2,600 -960 Descending Kansas City Center
02:25PM 36.5167 -93.2000 302° West  Level FlightAware Approximate
02:32PM 36.5321 -93.2005 302° West  Level Estimated
02:33PM 36.5321 -93.2005 302° West  Level Estimated